Time;durP1;ratioP1;P1;durP2;ratioP2;P2;SDS_P1;SDS_P2;PMS_P1;PMS_P2;Temp;Humidity;BMP_temperature;BMP_pressure;BME280_temperature;BME280_humidity;BME280_pressure;Samples;Min_cycle;Max_cycle;Signal;HPM_P1;HPM_P2
2022/06/01 00:02:08;;;;;;;7.50;5.28;;;16.30;94.60;;;;;;4994597;28;20037;-69
2022/06/01 00:04:34;;;;;;;7.25;5.03;;;16.30;94.70;;;;;;4997080;28;20022;-68
2022/06/01 00:07:00;;;;;;;8.23;5.18;;;16.30;94.90;;;;;;4994483;28;20125;-69
2022/06/01 00:09:25;;;;;;;8.13;5.93;;;16.30;95.00;;;;;;5006411;28;20048;-69
2022/06/01 00:11:51;;;;;;;6.28;4.85;;;16.30;95.10;;;;;;5014232;28;20413;-68
2022/06/01 00:14:17;;;;;;;5.80;5.13;;;16.30;95.10;;;;;;5004755;28;20034;-69
2022/06/01 00:16:42;;;;;;;9.82;6.07;;;16.30;95.20;;;;;;5012679;28;20029;-68
2022/06/01 00:19:11;;;;;;;10.57;5.32;;;16.30;95.30;;;;;;5004174;28;20105;-69
2022/06/01 00:22:11;;;;;;;5.80;4.75;;;16.30;95.10;;;;;;5002434;28;20041;-67
2022/06/01 00:24:22;;;;;;;6.25;5.35;;;16.30;95.20;;;;;;5001417;28;20045;-67
2022/06/01 00:26:51;;;;;;;7.35;6.05;;;16.30;95.30;;;;;;4994542;28;20513;-67
2022/06/01 00:29:17;;;;;;;8.48;6.78;;;16.30;95.40;;;;;;4999272;28;20037;-67
2022/06/01 00:31:43;;;;;;;15.25;9.43;;;16.30;95.40;;;;;;5003011;28;20034;-67
2022/06/01 00:34:08;;;;;;;18.02;11.57;;;16.30;95.30;;;;;;4998429;28;20030;-67
2022/06/01 00:36:34;;;;;;;22.13;13.18;;;16.30;95.30;;;;;;5004849;28;20026;-67
2022/06/01 00:38:59;;;;;;;20.70;12.90;;;16.30;95.30;;;;;;4997330;28;20409;-68
2022/06/01 00:41:25;;;;;;;19.85;12.90;;;16.30;95.30;;;;;;5005970;28;20026;-68
2022/06/01 00:43:50;;;;;;;21.15;13.25;;;16.30;95.30;;;;;;4995950;28;20030;-68
2022/06/01 00:46:15;;;;;;;20.30;11.38;;;16.30;95.40;;;;;;5007703;28;20019;-68
2022/06/01 00:48:45;;;;;;;16.13;10.65;;;16.30;95.50;;;;;;4994839;28;20055;-68
2022/06/01 00:51:13;;;;;;;14.63;9.75;;;16.30;95.50;;;;;;5011363;28;20037;-69
2022/06/01 00:53:40;;;;;;;12.68;8.13;;;16.30;95.50;;;;;;5012009;28;20554;-67
2022/06/01 00:56:10;;;;;;;10.27;7.75;;;16.40;95.60;;;;;;4994583;28;20057;-67
2022/06/01 00:58:39;;;;;;;12.40;8.23;;;16.30;95.60;;;;;;4999516;28;20548;-68
2022/06/01 01:01:08;;;;;;;10.93;8.32;;;16.40;95.70;;;;;;4993298;28;20039;-68
2022/06/01 01:03:37;;;;;;;10.02;6.75;;;16.30;95.70;;;;;;4998560;28;20034;-68
2022/06/01 01:06:28;;;;;;;11.18;6.50;;;16.40;95.90;;;;;;5012974;28;20492;-68
2022/06/01 01:08:54;;;;;;;8.52;6.88;;;16.30;95.90;;;;;;5006004;28;20119;-68
2022/06/01 01:11:25;;;;;;;7.85;5.82;;;16.30;95.90;;;;;;5011201;28;20036;-67
2022/06/01 01:13:52;;;;;;;8.13;6.25;;;16.40;96.00;;;;;;4993001;28;20129;-68
2022/06/01 01:16:20;;;;;;;7.53;5.57;;;16.40;96.00;;;;;;4993150;28;20542;-68
2022/06/01 01:18:46;;;;;;;7.78;5.80;;;16.30;96.00;;;;;;5004757;28;20031;-67
2022/06/01 01:21:16;;;;;;;7.53;5.38;;;16.40;96.00;;;;;;5012677;28;20026;-67
2022/06/01 01:24:02;;;;;;;6.88;5.53;;;16.40;96.10;;;;;;5011471;28;20117;-67
2022/06/01 01:26:28;;;;;;;4.90;4.40;;;16.40;96.10;;;;;;5009928;28;20042;-67
2022/06/01 01:28:54;;;;;;;6.28;4.43;;;16.40;95.90;;;;;;4995812;28;20446;-68
2022/06/01 01:31:22;;;;;;;7.50;4.45;;;16.40;95.70;;;;;;5008098;28;20120;-67
2022/06/01 01:33:50;;;;;;;8.40;5.30;;;16.40;95.60;;;;;;5010536;28;20157;-68
2022/06/01 01:36:17;;;;;;;5.25;4.47;;;16.40;95.60;;;;;;4998443;28;20030;-69
2022/06/01 01:39:07;;;;;;;6.25;5.18;;;16.40;95.40;;;;;;4993236;28;20032;-68
2022/06/01 01:41:50;;;;;;;5.55;4.65;;;16.40;95.40;;;;;;4996878;28;20077;-69
2022/06/01 01:44:26;;;;;;;5.88;4.13;;;16.40;95.50;;;;;;4998179;28;20386;-68
2022/06/01 01:46:52;;;;;;;5.65;4.38;;;16.30;95.30;;;;;;5010476;28;20033;-68
2022/06/01 01:49:22;;;;;;;6.05;4.70;;;16.30;95.30;;;;;;5002663;28;20450;-69
2022/06/01 01:51:49;;;;;;;5.35;4.32;;;16.30;95.50;;;;;;5012668;28;20036;-68
2022/06/01 01:54:44;;;;;;;7.07;4.18;;;16.30;95.30;;;;;;5003152;28;20014;-68
2022/06/01 01:57:36;;;;;;;5.97;3.85;;;16.30;95.10;;;;;;5012059;28;20084;-67
2022/06/01 02:00:18;;;;;;;5.78;4.25;;;16.30;94.90;;;;;;5001830;28;20449;-67
2022/06/01 02:03:03;;;;;;;5.18;3.88;;;16.30;94.70;;;;;;5010351;28;20034;-67
2022/06/01 02:08:16;;;;;;;4.63;4.07;;;16.20;94.60;;;;;;4992223;28;20100;-68
2022/06/01 02:13:27;;;;;;;4.82;3.90;;;16.20;94.60;;;;;;5002152;28;20033;-67
2022/06/01 02:15:56;;;;;;;4.43;3.47;;;16.10;94.60;;;;;;5010853;28;20054;-68
2022/06/01 02:18:29;;;;;;;4.78;4.15;;;16.10;94.60;;;;;;5007982;28;20390;-68
2022/06/01 02:21:01;;;;;;;5.60;4.55;;;16.10;94.60;;;;;;5009176;28;20485;-68
2022/06/01 02:23:31;;;;;;;4.80;4.03;;;16.10;94.70;;;;;;4992339;28;20053;-67
2022/06/01 02:25:58;;;;;;;5.20;3.50;;;16.10;94.70;;;;;;5011470;28;20473;-68
2022/06/01 02:28:24;;;;;;;5.40;3.60;;;16.10;94.60;;;;;;5011677;28;20037;-68
2022/06/01 02:30:52;;;;;;;5.85;4.35;;;16.10;94.60;;;;;;4992371;28;20045;-68
2022/06/01 02:33:21;;;;;;;4.75;3.85;;;16.10;94.60;;;;;;5009530;28;20034;-68
2022/06/01 02:35:52;;;;;;;5.72;3.67;;;16.10;94.70;;;;;;4993275;28;20026;-68
2022/06/01 02:38:25;;;;;;;4.22;3.58;;;16.00;94.90;;;;;;4992623;28;20030;-67
2022/06/01 02:40:51;;;;;;;5.18;3.75;;;16.10;95.00;;;;;;5010340;28;20034;-68
2022/06/01 02:43:17;;;;;;;4.40;3.80;;;16.00;95.00;;;;;;5007818;28;20034;-68
2022/06/01 02:45:42;;;;;;;4.82;3.60;;;16.10;95.10;;;;;;5010100;28;20026;-69
2022/06/01 02:48:08;;;;;;;5.05;3.58;;;16.00;95.10;;;;;;5002649;28;20022;-68
2022/06/01 02:50:35;;;;;;;5.10;3.78;;;16.00;95.10;;;;;;5002419;28;20046;-69
2022/06/01 02:53:02;;;;;;;5.35;3.85;;;16.10;95.20;;;;;;4996009;28;20029;-71
2022/06/01 02:55:29;;;;;;;4.40;3.95;;;16.10;95.20;;;;;;5003056;28;20022;-68
2022/06/01 02:57:55;;;;;;;5.03;4.15;;;16.10;95.20;;;;;;5015399;28;20037;-68
2022/06/01 03:00:30;;;;;;;5.28;4.05;;;16.10;95.30;;;;;;5002788;28;20027;-68
2022/06/01 03:02:57;;;;;;;;;;;16.10;95.40;;;;;;5005095;28;20079;-68
2022/06/01 03:05:25;;;;;;;5.47;3.90;;;16.10;95.10;;;;;;5006456;28;19910;-68
2022/06/01 03:07:52;;;;;;;4.30;3.42;;;16.00;95.20;;;;;;5013196;28;20041;-68
2022/06/01 03:10:18;;;;;;;4.75;3.60;;;16.00;95.00;;;;;;5008293;28;20517;-69
2022/06/01 03:12:44;;;;;;;4.57;3.50;;;16.10;95.20;;;;;;5010702;28;20552;-69
2022/06/01 03:15:12;;;;;;;4.65;3.92;;;16.00;95.30;;;;;;5003891;28;20034;-69
2022/06/01 03:17:38;;;;;;;4.43;3.55;;;16.00;95.40;;;;;;4996438;28;20035;-68
2022/06/01 03:20:08;;;;;;;5.00;3.40;;;16.00;95.20;;;;;;4997984;28;20026;-68
2022/06/01 03:22:38;;;;;;;4.43;3.35;;;16.10;95.20;;;;;;5002180;28;20040;-68
2022/06/01 03:25:07;;;;;;;4.78;3.10;;;16.10;95.10;;;;;;5010095;28;20109;-68
2022/06/01 03:27:32;;;;;;;4.82;3.58;;;16.10;95.00;;;;;;5012417;28;20038;-68
2022/06/01 03:29:58;;;;;;;4.25;3.47;;;16.10;95.00;;;;;;5013406;28;20520;-68
2022/06/01 03:32:23;;;;;;;4.55;3.38;;;16.10;95.00;;;;;;5008997;28;20034;-69
2022/06/01 03:34:49;;;;;;;3.83;3.13;;;16.10;95.10;;;;;;5000633;28;20030;-69
2022/06/01 03:37:15;;;;;;;5.30;3.38;;;16.10;95.10;;;;;;5013320;28;20026;-67
2022/06/01 03:39:40;;;;;;;3.88;3.20;;;16.20;95.10;;;;;;4995512;28;20027;-67
2022/06/01 03:42:06;;;;;;;5.65;3.38;;;16.10;95.10;;;;;;4997139;28;20018;-68
2022/06/01 03:47:15;;;;;;;4.00;3.60;;;16.10;95.20;;;;;;5000477;28;20081;-68
2022/06/01 03:49:42;;;;;;;4.70;3.30;;;16.10;95.10;;;;;;4994929;28;20226;-68
2022/06/01 03:52:09;;;;;;;3.90;3.38;;;16.10;95.20;;;;;;4994932;28;20054;-67
2022/06/01 03:54:35;;;;;;;4.97;3.80;;;16.10;95.30;;;;;;5009074;28;20033;-67
2022/06/01 03:57:02;;;;;;;8.05;3.75;;;16.20;95.40;;;;;;5014225;28;20037;-69
2022/06/01 03:59:29;;;;;;;47.60;6.90;;;16.10;95.50;;;;;;5005450;28;20035;-69
2022/06/01 04:01:55;;;;;;;5.35;3.70;;;16.20;95.60;;;;;;4995873;28;20360;-70
2022/06/01 04:04:21;;;;;;;5.25;4.10;;;16.20;95.60;;;;;;5012203;28;20026;-69
2022/06/01 04:06:46;;;;;;;5.13;3.90;;;16.20;95.60;;;;;;4999256;28;20077;-70
2022/06/01 04:09:12;;;;;;;5.43;3.85;;;16.20;95.70;;;;;;4999060;28;20042;-70
2022/06/01 04:11:37;;;;;;;4.28;3.85;;;16.30;95.70;;;;;;5012918;28;20032;-70
2022/06/01 04:14:03;;;;;;;6.20;4.05;;;16.30;95.70;;;;;;4998065;28;20022;-70
2022/06/01 04:16:28;;;;;;;5.30;4.30;;;16.30;95.90;;;;;;5014019;28;20037;-70
2022/06/01 04:18:54;;;;;;;4.82;4.32;;;16.30;95.80;;;;;;4997176;28;20401;-70
2022/06/01 04:21:23;;;;;;;4.88;4.25;;;16.30;95.80;;;;;;5013561;28;20301;-70
2022/06/01 04:23:50;;;;;;;5.78;4.30;;;16.40;95.90;;;;;;5012842;28;20024;-70
2022/06/01 04:26:16;;;;;;;5.35;4.60;;;16.30;95.80;;;;;;5012730;28;20026;-70
2022/06/01 04:28:43;;;;;;;4.97;4.35;;;16.30;95.80;;;;;;4997991;28;20350;-70
2022/06/01 04:31:08;;;;;;;6.18;4.32;;;16.30;95.80;;;;;;5000158;28;20133;-70
2022/06/01 04:33:34;;;;;;;6.03;4.35;;;16.30;95.70;;;;;;4994434;28;20117;-70
2022/06/01 04:36:00;;;;;;;6.03;4.72;;;16.30;95.70;;;;;;5001027;28;20041;-69
2022/06/01 04:38:26;;;;;;;6.13;4.68;;;16.30;95.70;;;;;;4995424;28;20019;-69
2022/06/01 04:40:52;;;;;;;6.95;5.13;;;16.30;95.70;;;;;;5011098;28;20786;-70
2022/06/01 04:43:21;;;;;;;6.13;5.35;;;16.30;95.70;;;;;;5009845;28;20026;-69
2022/06/01 04:45:50;;;;;;;5.63;5.00;;;16.20;95.70;;;;;;5010763;28;20521;-69
2022/06/01 04:48:16;;;;;;;6.47;5.35;;;16.20;95.70;;;;;;5010947;28;20096;-69
2022/06/01 04:50:44;;;;;;;5.57;4.70;;;16.20;95.70;;;;;;5009831;28;20564;-69
2022/06/01 04:53:12;;;;;;;6.28;5.00;;;16.20;95.70;;;;;;5010300;28;20036;-70
2022/06/01 04:55:38;;;;;;;7.25;5.70;;;16.20;95.70;;;;;;5011988;28;20109;-69
2022/06/01 04:58:04;;;;;;;6.88;5.13;;;16.20;95.60;;;;;;5011707;28;20022;-69
2022/06/01 05:00:29;;;;;;;5.43;4.88;;;16.20;95.60;;;;;;4997450;28;20033;-70
2022/06/01 05:02:55;;;;;;;6.03;5.40;;;16.20;95.50;;;;;;4998846;28;20108;-70
2022/06/01 05:05:20;;;;;;;5.70;5.05;;;16.20;95.50;;;;;;5011396;28;20033;-70
2022/06/01 05:07:46;;;;;;;6.38;5.75;;;16.30;95.50;;;;;;5012504;28;20113;-70
2022/06/01 05:10:11;;;;;;;6.20;5.55;;;16.30;95.50;;;;;;5011235;28;20108;-69
2022/06/01 05:12:37;;;;;;;5.72;4.95;;;16.40;95.60;;;;;;5012160;28;20116;-70
2022/06/01 05:15:03;;;;;;;5.93;5.07;;;16.50;95.60;;;;;;5009872;28;20041;-69
2022/06/01 05:17:31;;;;;;;5.75;4.82;;;16.50;95.40;;;;;;5007287;28;20030;-70
2022/06/01 05:19:57;;;;;;;6.93;5.10;;;16.60;95.40;;;;;;5008677;28;20026;-70
2022/06/01 05:22:22;;;;;;;7.40;4.90;;;16.70;95.20;;;;;;4991206;28;20037;-70
2022/06/01 05:24:48;;;;;;;6.65;5.22;;;16.70;95.20;;;;;;4996080;28;20189;-70
2022/06/01 05:27:13;;;;;;;6.15;4.53;;;16.80;95.10;;;;;;5012232;28;20397;-70
2022/06/01 05:29:39;;;;;;;5.85;4.78;;;16.90;95.00;;;;;;5009538;28;20038;-70
2022/06/01 05:32:06;;;;;;;7.03;5.25;;;17.00;94.90;;;;;;4992590;28;20101;-70
2022/06/01 05:34:31;;;;;;;6.78;5.00;;;17.10;94.70;;;;;;4999746;28;20041;-70
2022/06/01 05:36:57;;;;;;;4.97;4.47;;;17.20;94.60;;;;;;5014687;28;20045;-70
2022/06/01 05:39:22;;;;;;;5.95;4.47;;;17.20;94.50;;;;;;5017659;28;20123;-69
2022/06/01 05:41:48;;;;;;;5.80;4.07;;;17.30;94.20;;;;;;5018024;28;20049;-69
2022/06/01 05:44:13;;;;;;;5.57;3.85;;;17.30;94.10;;;;;;4999373;28;20097;-70
2022/06/01 05:46:39;;;;;;;4.63;3.90;;;17.40;93.90;;;;;;4999546;28;20026;-70
2022/06/01 05:49:05;;;;;;;5.35;3.40;;;17.50;93.40;;;;;;5008301;28;20033;-70
2022/06/01 05:51:30;;;;;;;5.80;4.00;;;17.60;93.10;;;;;;4996073;28;20034;-71
2022/06/01 05:53:56;;;;;;;5.03;3.53;;;17.60;92.80;;;;;;5010302;28;20049;-70
2022/06/01 05:56:21;;;;;;;4.72;3.80;;;17.60;92.60;;;;;;4995481;28;20034;-71
2022/06/01 05:58:48;;;;;;;4.80;4.07;;;17.60;92.40;;;;;;4993831;28;20026;-69
2022/06/01 06:01:14;;;;;;;4.40;3.47;;;17.60;92.20;;;;;;5012040;28;20033;-68
2022/06/01 06:03:39;;;;;;;7.72;4.38;;;17.60;92.10;;;;;;5008865;28;20037;-67
2022/06/01 06:06:17;;;;;;;4.90;3.92;;;17.60;92.10;;;;;;4999265;28;20031;-65
2022/06/01 06:09:02;;;;;;;5.30;4.18;;;17.50;92.00;;;;;;4992398;28;20109;-66
2022/06/01 06:11:36;;;;;;;5.10;3.90;;;17.50;92.20;;;;;;5011931;28;20049;-67
2022/06/01 06:14:02;;;;;;;7.55;4.20;;;17.50;92.10;;;;;;5005428;28;20018;-67
2022/06/01 06:16:30;;;;;;;6.78;4.10;;;17.60;92.20;;;;;;4992331;28;20048;-67
2022/06/01 06:18:56;;;;;;;5.20;3.45;;;17.60;92.10;;;;;;4995928;28;20027;-68
2022/06/01 06:21:26;;;;;;;7.50;3.47;;;17.60;92.00;;;;;;4993762;28;20057;-66
2022/06/01 06:23:53;;;;;;;4.47;3.58;;;17.70;92.00;;;;;;4998681;28;20058;-65
2022/06/01 06:26:20;;;;;;;5.65;3.42;;;17.80;91.80;;;;;;5013815;28;20037;-65
2022/06/01 06:28:46;;;;;;;5.20;3.63;;;17.90;91.70;;;;;;5007514;28;20022;-67
2022/06/01 06:31:12;;;;;;;5.80;3.30;;;18.00;91.60;;;;;;5015716;28;20041;-65
2022/06/01 06:33:37;;;;;;;4.90;3.45;;;18.10;91.40;;;;;;5013887;28;20469;-66
2022/06/01 06:36:06;;;;;;;3.92;2.97;;;18.20;91.30;;;;;;5004652;28;20029;-66
2022/06/01 06:38:33;;;;;;;5.20;3.45;;;18.20;91.00;;;;;;5014979;28;20026;-65
2022/06/01 06:40:59;;;;;;;4.45;3.72;;;18.30;91.00;;;;;;5013095;28;20030;-67
2022/06/01 06:43:27;;;;;;;3.85;3.08;;;18.30;90.80;;;;;;5006351;28;20019;-66
2022/06/01 06:46:00;;;;;;;8.57;3.60;;;18.40;90.70;;;;;;5005626;28;20022;-66
2022/06/01 06:48:26;;;;;;;4.40;3.10;;;18.50;90.80;;;;;;5007207;28;20377;-65
2022/06/01 06:50:51;;;;;;;4.78;3.22;;;18.50;90.60;;;;;;5010676;28;20252;-65
2022/06/01 06:53:17;;;;;;;4.30;3.40;;;18.70;90.50;;;;;;5011569;28;20022;-66
2022/06/01 06:55:43;;;;;;;5.47;3.30;;;18.70;90.40;;;;;;5018242;28;20022;-66
2022/06/01 06:58:10;;;;;;;4.30;3.33;;;18.70;90.10;;;;;;5010967;28;20023;-65
2022/06/01 07:00:36;;;;;;;3.35;2.70;;;18.80;89.90;;;;;;5014566;28;20072;-65
2022/06/01 07:03:03;;;;;;;3.65;2.65;;;18.80;89.40;;;;;;5011057;28;20511;-66
2022/06/01 07:06:08;;;;;;;4.82;3.22;;;18.80;89.30;;;;;;5016594;28;20026;-66
2022/06/01 07:08:26;;;;;;;4.32;3.10;;;18.80;89.50;;;;;;5005035;28;20018;-66
2022/06/01 07:10:53;;;;;;;3.70;2.88;;;18.80;89.10;;;;;;5017475;28;20049;-66
2022/06/01 07:13:19;;;;;;;4.07;2.70;;;18.90;89.20;;;;;;5003743;28;20481;-65
2022/06/01 07:15:44;;;;;;;3.70;2.80;;;18.90;89.30;;;;;;5009345;28;20034;-65
2022/06/01 07:18:10;;;;;;;3.92;2.53;;;18.90;88.90;;;;;;4998784;28;20395;-65
2022/06/01 07:20:36;;;;;;;4.88;2.60;;;19.00;88.10;;;;;;5013689;28;20037;-65
2022/06/01 07:23:01;;;;;;;3.67;2.63;;;19.00;88.20;;;;;;5005026;28;20033;-65
2022/06/01 07:25:28;;;;;;;4.22;2.40;;;19.00;87.90;;;;;;5012661;28;20108;-65
2022/06/01 07:27:54;;;;;;;6.40;2.70;;;19.10;87.60;;;;;;5014295;28;20092;-66
2022/06/01 07:30:20;;;;;;;3.40;2.45;;;19.20;87.50;;;;;;4997862;28;20486;-66
2022/06/01 07:32:47;;;;;;;3.60;2.58;;;19.40;86.90;;;;;;5001706;28;20030;-65
2022/06/01 07:35:13;;;;;;;4.43;2.58;;;19.50;87.00;;;;;;4994919;28;20026;-65
2022/06/01 07:43:10;;;;;;;3.30;2.60;;;19.90;86.20;;;;;;5027012;28;20091;-66
2022/06/01 07:45:41;;;;;;;3.30;2.55;;;19.90;86.00;;;;;;5010085;28;20477;-66
2022/06/01 07:48:08;;;;;;;3.78;2.50;;;20.00;85.60;;;;;;5004204;28;20393;-67
2022/06/01 07:50:34;;;;;;;3.13;2.38;;;20.20;85.20;;;;;;4994674;28;20049;-65
2022/06/01 07:53:02;;;;;;;3.03;2.13;;;20.30;84.50;;;;;;5005723;28;20022;-66
2022/06/01 07:55:28;;;;;;;3.72;2.25;;;20.30;84.60;;;;;;5012471;28;20188;-65
2022/06/01 07:57:53;;;;;;;5.75;2.47;;;20.50;83.60;;;;;;5006287;28;20030;-66
2022/06/01 08:00:20;;;;;;;3.78;2.45;;;20.60;82.40;;;;;;5012297;28;20032;-66
2022/06/01 08:02:46;;;;;;;2.67;2.00;;;20.60;81.50;;;;;;5003496;28;20026;-65
2022/06/01 08:05:14;;;;;;;4.28;1.90;;;20.70;80.70;;;;;;5012693;28;20029;-66
2022/06/01 08:07:41;;;;;;;5.40;2.20;;;20.80;79.60;;;;;;4999940;28;20473;-66
2022/06/01 08:10:07;;;;;;;4.20;2.30;;;20.80;79.00;;;;;;4996668;28;20068;-65
2022/06/01 08:13:06;;;;;;;2.88;2.10;;;20.90;79.00;;;;;;5001866;28;20026;-66
2022/06/01 08:15:26;;;;;;;2.53;1.92;;;20.90;79.10;;;;;;5000996;28;20450;-66
2022/06/01 08:17:52;;;;;;;3.33;2.17;;;20.90;78.80;;;;;;4996212;28;20495;-65
2022/06/01 08:20:18;;;;;;;2.78;2.20;;;20.90;78.40;;;;;;5014048;28;20133;-65
2022/06/01 08:22:44;;;;;;;3.17;2.15;;;20.90;77.80;;;;;;5008742;28;20112;-66
2022/06/01 08:25:13;;;;;;;4.00;2.20;;;20.90;77.80;;;;;;5005783;28;20502;-66
2022/06/01 08:27:38;;;;;;;4.20;2.45;;;20.90;78.30;;;;;;4999608;28;20038;-66
2022/06/01 08:30:04;;;;;;;3.97;2.35;;;20.90;78.60;;;;;;5006655;28;20089;-66
2022/06/01 08:32:30;;;;;;;3.13;2.28;;;20.90;78.40;;;;;;4997108;28;20425;-65
2022/06/01 08:34:55;;;;;;;4.78;2.60;;;20.90;78.60;;;;;;5003890;28;20026;-66
2022/06/01 08:37:21;;;;;;;4.47;2.20;;;21.00;78.70;;;;;;5004513;28;20073;-65
2022/06/01 08:39:46;;;;;;;4.60;2.30;;;21.10;78.70;;;;;;4999480;28;20030;-65
2022/06/01 08:42:15;;;;;;;4.03;2.33;;;21.10;78.60;;;;;;5011236;28;20037;-64
2022/06/01 08:44:44;;;;;;;2.75;2.38;;;21.20;78.60;;;;;;5009191;28;20029;-64
2022/06/01 08:47:24;;;;;;;2.97;2.08;;;21.20;78.20;;;;;;5005027;28;20030;-67
2022/06/01 08:49:49;;;;;;;3.03;2.60;;;21.30;77.80;;;;;;5000270;28;20033;-65
2022/06/01 08:52:15;;;;;;;4.97;2.67;;;21.40;77.80;;;;;;5010003;28;20025;-65
2022/06/01 08:54:40;;;;;;;3.50;2.47;;;21.50;77.90;;;;;;5001655;28;20121;-65
2022/06/01 08:57:21;;;;;;;2.75;2.03;;;21.50;77.30;;;;;;4992693;28;20022;-65
2022/06/01 09:00:07;;;;;;;3.28;2.20;;;21.60;77.30;;;;;;5009286;28;20037;-65
2022/06/01 09:02:56;;;;;;;7.95;3.10;;;21.70;76.10;;;;;;4993312;28;20041;-65
2022/06/01 09:05:43;;;;;;;2.95;1.90;;;21.80;75.70;;;;;;5000267;28;20034;-65
2022/06/01 09:08:39;;;;;;;2.55;1.90;;;21.90;74.70;;;;;;4992143;28;20026;-65
2022/06/01 09:11:13;;;;;;;2.95;2.35;;;22.00;74.90;;;;;;4990284;28;20081;-65
2022/06/01 09:14:03;;;;;;;16.87;2.87;;;22.10;74.80;;;;;;5000901;28;20032;-64
2022/06/01 09:16:37;;;;;;;2.80;2.22;;;22.20;73.80;;;;;;5007495;28;20052;-64
2022/06/01 09:19:04;;;;;;;3.65;1.95;;;22.20;73.30;;;;;;5005241;28;20038;-64
2022/06/01 09:24:32;;;;;;;2.80;1.95;;;22.20;71.50;;;;;;5007344;28;20131;-64
2022/06/01 09:27:03;;;;;;;4.75;2.13;;;22.20;70.60;;;;;;5003358;28;20031;-64
2022/06/01 09:29:32;;;;;;;3.00;2.00;;;22.10;69.00;;;;;;4998116;28;20513;-65
2022/06/01 09:32:06;;;;;;;3.97;2.20;;;22.00;67.50;;;;;;4998158;28;20072;-64
2022/06/01 09:34:46;;;;;;;3.70;2.10;;;22.00;68.10;;;;;;5019595;28;20029;-65
2022/06/01 09:37:27;;;;;;;3.63;2.00;;;21.90;68.40;;;;;;5011791;28;20030;-65
2022/06/01 09:39:59;;;;;;;5.78;2.45;;;21.80;68.90;;;;;;5010451;28;20487;-64
2022/06/01 09:42:32;;;;;;;3.10;2.17;;;21.80;68.90;;;;;;5011567;28;20017;-64
2022/06/01 09:44:59;;;;;;;4.65;2.42;;;21.70;68.10;;;;;;5008834;28;20033;-64
2022/06/01 09:47:35;;;;;;;3.85;1.85;;;21.70;67.10;;;;;;5010574;28;20040;-64
2022/06/01 09:50:03;;;;;;;4.18;2.10;;;21.70;67.40;;;;;;5009716;28;20042;-65
2022/06/01 09:52:33;;;;;;;3.60;2.20;;;21.70;67.80;;;;;;5011908;28;20040;-64
2022/06/01 09:55:21;;;;;;;4.32;2.00;;;21.70;67.30;;;;;;5009835;28;20125;-64
2022/06/01 09:58:06;;;;;;;4.00;2.28;;;21.70;67.30;;;;;;5011712;28;20034;-65
2022/06/01 10:06:26;;;;;;;3.10;2.22;;;21.70;66.30;;;;;;4992137;28;20112;-65
2022/06/01 10:09:19;;;;;;;3.15;1.90;;;21.60;66.30;;;;;;4992991;28;20314;-65
2022/06/01 10:11:46;;;;;;;3.50;2.47;;;21.60;65.60;;;;;;5008841;28;20057;-64
2022/06/01 10:14:18;;;;;;;3.97;1.80;;;21.60;65.30;;;;;;5003795;28;20065;-64
2022/06/01 10:16:48;;;;;;;3.92;2.15;;;21.60;65.00;;;;;;4992144;28;20117;-64
2022/06/01 10:19:20;;;;;;;3.75;1.80;;;21.70;65.00;;;;;;4999589;28;20109;-64
2022/06/01 10:21:58;;;;;;;4.30;1.85;;;21.70;65.10;;;;;;5008065;28;20481;-65
2022/06/01 10:24:32;;;;;;;3.35;2.30;;;21.80;64.10;;;;;;5006456;28;20018;-65
2022/06/01 10:27:00;;;;;;;3.30;1.75;;;21.80;63.30;;;;;;4992055;28;20170;-64
2022/06/01 10:29:32;;;;;;;3.20;1.92;;;21.70;62.90;;;;;;4999229;28;20068;-65
2022/06/01 10:32:05;;;;;;;3.28;1.80;;;21.70;62.70;;;;;;5004743;28;20049;-64
2022/06/01 10:35:12;;;;;;;4.05;1.95;;;21.60;62.90;;;;;;4991643;28;20026;-65
2022/06/01 10:37:51;;;;;;;2.78;1.95;;;21.60;63.20;;;;;;4981183;28;20058;-64
2022/06/01 10:40:22;;;;;;;2.88;1.90;;;21.50;63.20;;;;;;5004781;28;20030;-64
2022/06/01 10:43:17;;;;;;;4.22;2.03;;;21.60;63.50;;;;;;5010064;28;20385;-64
2022/06/01 10:45:49;;;;;;;3.50;2.30;;;21.60;63.60;;;;;;4993506;28;20037;-65
2022/06/01 10:48:21;;;;;;;4.63;2.60;;;21.70;63.50;;;;;;4998469;28;20064;-65
2022/06/01 10:51:10;;;;;;;4.80;2.50;;;21.70;63.90;;;;;;5009950;28;20048;-64
2022/06/01 10:53:57;;;;;;;4.18;2.50;;;21.80;63.90;;;;;;5010054;28;20026;-64
2022/06/01 10:56:23;;;;;;;4.95;2.13;;;21.90;64.70;;;;;;4991677;28;20072;-65
2022/06/01 10:58:52;;;;;;;2.97;2.33;;;22.00;65.60;;;;;;4995232;28;20050;-64
2022/06/01 11:01:39;;;;;;;2.75;2.15;;;22.10;65.10;;;;;;5009859;28;20022;-64
2022/06/01 11:04:28;;;;;;;4.93;2.45;;;22.10;64.20;;;;;;5005885;28;20358;-64
2022/06/01 11:07:00;;;;;;;3.25;1.92;;;22.20;64.70;;;;;;4991586;28;20033;-64
2022/06/01 11:09:40;;;;;;;4.32;1.85;;;22.30;64.20;;;;;;4992156;28;20039;-64
2022/06/01 11:12:15;;;;;;;3.13;1.80;;;22.30;65.00;;;;;;4992882;28;20117;-64
2022/06/01 11:15:01;;;;;;;3.05;2.10;;;22.40;64.70;;;;;;5003171;28;20037;-64
2022/06/01 11:18:01;;;;;;;3.08;2.10;;;22.40;64.00;;;;;;5014831;28;20080;-64
2022/06/01 11:20:44;;;;;;;2.90;2.08;;;22.50;63.30;;;;;;5010144;28;20022;-64
2022/06/01 11:23:42;;;;;;;4.47;2.15;;;22.50;63.20;;;;;;5012324;28;20036;-65
2022/06/01 11:26:28;;;;;;;4.65;1.70;;;22.50;62.30;;;;;;5014513;28;20026;-64
2022/06/01 11:29:06;;;;;;;3.25;1.80;;;22.50;61.60;;;;;;5001365;28;20026;-64
2022/06/01 11:31:34;;;;;;;3.42;1.80;;;22.50;60.90;;;;;;5013527;28;20042;-64
2022/06/01 11:34:14;;;;;;;2.50;1.88;;;22.60;60.70;;;;;;5009920;28;20031;-64
2022/06/01 11:37:01;;;;;;;5.05;1.70;;;22.70;60.50;;;;;;4994854;28;20041;-64
2022/06/01 11:39:39;;;;;;;2.55;1.92;;;22.60;60.20;;;;;;4999097;28;20062;-64
2022/06/01 11:42:30;;;;;;;4.13;1.90;;;22.70;59.70;;;;;;5020234;28;20029;-64
2022/06/01 11:45:01;;;;;;;3.05;2.28;;;22.80;60.40;;;;;;5015425;28;20036;-64
2022/06/01 11:47:34;;;;;;;3.47;1.90;;;22.80;60.00;;;;;;5008361;28;20121;-65
2022/06/01 11:50:24;;;;;;;6.28;2.53;;;22.80;59.70;;;;;;5008534;28;20042;-65
2022/06/01 11:52:58;;;;;;;3.45;2.05;;;22.70;60.20;;;;;;4994285;28;20085;-65
2022/06/01 11:55:40;;;;;;;3.80;1.77;;;22.70;60.40;;;;;;5006031;28;20088;-64
2022/06/01 11:58:13;;;;;;;5.18;1.90;;;22.70;61.00;;;;;;5012806;28;20516;-64
2022/06/01 12:00:51;;;;;;;4.20;2.08;;;22.80;61.10;;;;;;5006157;28;20072;-64
2022/06/01 12:03:17;;;;;;;4.05;2.13;;;22.90;61.30;;;;;;5004078;28;20034;-65
2022/06/01 12:06:09;;;;;;;3.05;2.17;;;22.90;61.30;;;;;;5008739;28;20101;-65
2022/06/01 12:08:49;;;;;;;2.20;1.77;;;23.10;61.00;;;;;;5009250;28;20035;-66
2022/06/01 12:11:41;;;;;;;2.90;1.70;;;23.20;60.70;;;;;;4994737;28;20117;-66
2022/06/01 12:14:41;;;;;;;2.92;1.88;;;23.30;60.40;;;;;;5005972;28;20030;-65
2022/06/01 12:17:18;;;;;;;2.45;1.92;;;23.40;60.40;;;;;;5014615;28;20142;-65
2022/06/01 12:19:47;;;;;;;2.97;1.75;;;23.40;59.00;;;;;;5015897;28;20032;-64
2022/06/01 12:28:31;;;;;;;4.68;1.95;;;23.40;58.70;;;;;;5016691;28;20025;-64
2022/06/01 12:31:12;;;;;;;3.22;1.50;;;23.40;58.40;;;;;;5017705;28;20045;-63
2022/06/01 12:34:03;;;;;;;4.05;1.75;;;23.40;58.20;;;;;;5014826;28;20158;-64
2022/06/01 12:36:37;;;;;;;3.13;1.55;;;23.50;57.80;;;;;;5005913;28;20478;-65
2022/06/01 12:39:08;;;;;;;2.50;1.60;;;23.60;57.50;;;;;;4996687;28;20095;-64
2022/06/01 12:41:38;;;;;;;1.30;1.20;;;23.70;56.80;;;;;;4992188;28;20031;-67
2022/06/01 12:44:07;;;;;;;3.20;1.88;;;23.70;57.10;;;;;;4999022;28;20021;-67
2022/06/01 12:46:39;;;;;;;4.35;1.38;;;23.70;57.60;;;;;;4995572;28;20030;-68
2022/06/01 12:49:26;;;;;;;1.80;1.40;;;23.70;57.00;;;;;;5004952;28;20038;-69
2022/06/01 12:51:55;;;;;;;1.90;1.45;;;23.60;57.40;;;;;;5007216;28;20120;-67
2022/06/01 12:54:39;;;;;;;2.08;1.30;;;23.40;56.80;;;;;;5007244;28;20048;-67
2022/06/01 12:57:08;;;;;;;2.55;1.02;;;23.30;56.50;;;;;;5013115;28;20025;-68
2022/06/01 12:59:37;;;;;;;3.13;1.77;;;23.10;56.40;;;;;;4999947;28;20064;-66
2022/06/01 13:02:09;;;;;;;4.82;1.98;;;23.00;56.10;;;;;;5006701;28;20549;-68
2022/06/01 13:04:36;;;;;;;6.82;2.78;;;22.70;59.30;;;;;;4993723;28;20188;-68
2022/06/01 13:07:03;;;;;;;6.78;2.25;;;22.30;61.80;;;;;;5007478;28;20184;-68
2022/06/01 13:09:31;;;;;;;9.68;3.03;;;21.70;63.70;;;;;;4993121;28;20057;-67
2022/06/01 13:12:03;;;;;;;5.78;2.20;;;21.20;66.40;;;;;;5006472;28;20507;-67
2022/06/01 13:14:31;;;;;;;2.80;1.98;;;20.80;68.30;;;;;;5005596;28;20454;-68
2022/06/01 13:17:14;;;;;;;3.88;2.33;;;20.40;69.00;;;;;;5005427;28;20034;-67
2022/06/01 13:19:39;;;;;;;6.40;3.10;;;20.00;70.30;;;;;;5008415;28;20133;-67
2022/06/01 13:22:17;;;;;;;5.10;2.42;;;19.70;72.00;;;;;;5004872;28;20098;-68
2022/06/01 13:25:11;;;;;;;5.18;2.40;;;19.50;73.70;;;;;;4996527;28;20042;-68
2022/06/01 13:27:38;;;;;;;5.28;2.60;;;19.30;75.70;;;;;;5013640;28;20058;-68
2022/06/01 13:30:04;;;;;;;7.40;2.90;;;19.30;77.60;;;;;;5003532;28;20038;-67
2022/06/01 13:32:32;;;;;;;3.83;2.40;;;19.30;80.00;;;;;;5004668;28;20068;-67
2022/06/01 13:35:16;;;;;;;4.32;2.53;;;19.20;81.20;;;;;;5002828;28;20030;-67